createdAt,value
2022-11-05T00:02:27.565Z,0.60
2022-11-05T00:05:11.772Z,0.60
2022-11-05T00:08:00.602Z,0.53
2022-11-05T00:10:30.644Z,0.60
2022-11-05T00:13:18.208Z,0.60
2022-11-05T00:16:03.759Z,0.70
2022-11-05T00:18:32.024Z,0.80
2022-11-05T00:20:59.808Z,0.97
2022-11-05T00:23:45.115Z,0.80
2022-11-05T00:26:13.923Z,1.00
2022-11-05T00:28:43.904Z,1.00
2022-11-05T00:31:14.052Z,0.80
2022-11-05T00:33:44.154Z,1.17
2022-11-05T00:36:12.219Z,1.10
2022-11-05T00:38:39.978Z,1.10
2022-11-05T00:41:07.885Z,0.90
2022-11-05T00:43:58.536Z,0.90
2022-11-05T00:46:27.614Z,1.00
2022-11-05T00:49:12.804Z,1.00
2022-11-05T00:51:40.565Z,0.70
2022-11-05T00:54:08.259Z,0.90
2022-11-05T00:56:35.920Z,1.20
2022-11-05T00:59:04.777Z,1.10
2022-11-05T01:01:34.237Z,0.87
2022-11-05T01:04:02.101Z,1.00
2022-11-05T01:06:29.783Z,1.00
2022-11-05T01:08:57.496Z,0.77
2022-11-05T01:11:34.450Z,0.97
2022-11-05T01:14:04.057Z,0.90
2022-11-05T01:16:33.221Z,0.93
2022-11-05T01:19:02.214Z,1.23
2022-11-05T01:21:29.931Z,0.90
2022-11-05T01:23:57.665Z,1.20
2022-11-05T01:26:26.036Z,1.10
2022-11-05T01:28:53.830Z,0.80
2022-11-05T01:31:21.909Z,1.10
2022-11-05T01:33:51.381Z,0.80
2022-11-05T01:36:19.562Z,0.97
2022-11-05T01:38:47.243Z,0.90
2022-11-05T01:41:15.066Z,1.03
2022-11-05T01:43:48.503Z,1.03
2022-11-05T01:46:18.934Z,1.17
2022-11-05T01:48:49.638Z,1.03
2022-11-05T01:51:23.572Z,0.90
2022-11-05T01:53:56.494Z,1.00
2022-11-05T01:56:27.734Z,0.87
2022-11-05T01:58:59.857Z,0.90
2022-11-05T02:01:28.669Z,1.13
2022-11-05T02:04:00.813Z,0.83
2022-11-05T02:06:31.193Z,0.80
2022-11-05T02:09:03.754Z,0.73
2022-11-05T02:11:31.796Z,0.80
2022-11-05T02:14:00.020Z,1.00
2022-11-05T02:16:42.366Z,0.60
2022-11-05T02:19:37.589Z,0.70
2022-11-05T02:22:40.741Z,0.70
2022-11-05T02:25:41.544Z,0.63
2022-11-05T02:28:45.618Z,0.80
2022-11-05T02:31:21.180Z,0.60
2022-11-05T02:33:58.028Z,1.00
2022-11-05T02:36:38.525Z,0.50
2022-11-05T02:39:15.058Z,0.70
2022-11-05T02:41:52.289Z,0.67
2022-11-05T02:44:30.171Z,0.63
2022-11-05T02:47:06.770Z,0.73
2022-11-05T02:49:41.474Z,0.60
2022-11-05T02:52:17.491Z,0.70
2022-11-05T02:54:54.066Z,0.63
2022-11-05T02:57:23.345Z,0.63
2022-11-05T03:00:01.599Z,0.67
2022-11-05T03:02:30.854Z,0.80
2022-11-05T03:04:59.382Z,0.70
2022-11-05T03:07:45.090Z,0.53
2022-11-05T03:10:28.385Z,0.50
2022-11-05T03:13:05.684Z,0.40
2022-11-05T03:15:48.737Z,0.50
2022-11-05T03:18:25.237Z,0.50
2022-11-05T03:21:02.096Z,0.63
2022-11-05T03:23:37.209Z,0.50
2022-11-05T03:26:11.277Z,0.40
2022-11-05T03:28:43.200Z,0.50
2022-11-05T03:31:14.401Z,0.37
2022-11-05T03:33:45.215Z,0.60
2022-11-05T03:36:17.778Z,0.60
2022-11-05T03:38:50.616Z,0.80
2022-11-05T03:41:20.106Z,0.80
2022-11-05T03:43:52.440Z,0.60
2022-11-05T03:46:25.710Z,0.80
2022-11-05T03:48:58.302Z,0.70
2022-11-05T03:51:34.581Z,0.90
2022-11-05T03:54:04.140Z,0.83
2022-11-05T03:56:37.219Z,1.00
2022-11-05T03:59:08.320Z,0.80
2022-11-05T04:01:38.035Z,0.90
2022-11-05T04:04:07.977Z,1.20
2022-11-05T04:06:53.356Z,0.80
2022-11-05T04:09:38.993Z,0.70
2022-11-05T04:12:24.715Z,0.90
2022-11-05T04:14:52.369Z,0.80
2022-11-05T04:17:19.136Z,0.80
2022-11-05T04:20:05.756Z,0.77
2022-11-05T04:22:52.549Z,0.83
2022-11-05T04:25:21.609Z,0.70
2022-11-05T04:27:49.988Z,0.93
2022-11-05T04:30:18.589Z,0.70
2022-11-05T04:33:01.240Z,0.57
2022-11-05T04:35:32.279Z,0.70
2022-11-05T04:38:00.539Z,0.70
2022-11-05T04:40:28.633Z,0.60
2022-11-05T04:42:57.196Z,0.60
2022-11-05T04:45:26.073Z,0.70
2022-11-05T04:47:53.775Z,0.50
2022-11-05T04:50:21.687Z,0.70
2022-11-05T04:52:50.812Z,0.53
2022-11-05T04:55:18.945Z,0.83
2022-11-05T04:57:49.002Z,0.80
2022-11-05T05:00:17.283Z,1.20
2022-11-05T05:02:45.222Z,1.10
2022-11-05T05:05:13.804Z,1.07
2022-11-05T05:07:42.096Z,1.03
2022-11-05T05:10:11.972Z,0.90
2022-11-05T05:12:39.779Z,0.87
2022-11-05T05:15:08.434Z,1.17
2022-11-05T05:17:36.223Z,0.80
2022-11-05T05:20:21.344Z,0.87
2022-11-05T05:22:53.027Z,0.90
2022-11-05T05:25:22.564Z,1.00
2022-11-05T05:27:50.335Z,0.90
2022-11-05T05:30:18.610Z,0.97
2022-11-05T05:32:46.916Z,1.10
2022-11-05T05:35:14.661Z,0.90
2022-11-05T05:37:42.370Z,1.47
2022-11-05T05:40:11.103Z,1.33
2022-11-05T05:42:43.190Z,1.30
2022-11-05T05:45:12.268Z,1.50
2022-11-05T05:47:40.112Z,1.47
2022-11-05T05:50:08.110Z,1.50
2022-11-05T05:52:35.842Z,1.53
2022-11-05T05:55:03.551Z,1.80
2022-11-05T05:57:31.297Z,1.70
2022-11-05T06:00:01.872Z,1.80
2022-11-05T06:02:31.537Z,2.13
2022-11-05T06:04:59.367Z,2.03
2022-11-05T06:07:27.166Z,1.67
2022-11-05T06:09:54.972Z,1.80
2022-11-05T06:12:22.721Z,1.90
2022-11-05T06:14:50.400Z,2.23
2022-11-05T06:17:19.451Z,2.07
2022-11-05T06:19:47.807Z,2.33
2022-11-05T06:22:16.049Z,2.60
2022-11-05T06:24:43.831Z,2.00
2022-11-05T06:27:11.564Z,2.10
2022-11-05T06:29:39.281Z,2.07
2022-11-05T06:32:07.024Z,2.30
2022-11-05T06:34:36.816Z,2.07
2022-11-05T06:37:04.624Z,2.30
2022-11-05T06:39:32.341Z,2.20
2022-11-05T06:44:48.209Z,2.50
2022-11-05T06:47:15.998Z,2.60
2022-11-05T06:49:45.265Z,2.20
2022-11-05T06:52:13.378Z,2.37
2022-11-05T06:54:42.277Z,2.43
2022-11-05T06:57:10.681Z,2.57
2022-11-05T06:59:38.548Z,2.20
2022-11-05T07:02:06.640Z,2.43
2022-11-05T07:04:34.718Z,2.37
2022-11-05T07:07:04.066Z,2.43
2022-11-05T07:09:32.027Z,2.60
2022-11-05T07:11:59.699Z,2.63
2022-11-05T07:14:27.396Z,2.70
2022-11-05T07:16:55.101Z,2.53
2022-11-05T07:19:22.824Z,2.43
2022-11-05T07:21:50.987Z,2.37
2022-11-05T07:24:20.058Z,2.60
2022-11-05T07:26:47.711Z,2.23
2022-11-05T07:29:15.400Z,2.90
2022-11-05T07:31:43.073Z,2.17
2022-11-05T07:34:10.863Z,2.33
2022-11-05T07:36:39.439Z,2.43
2022-11-05T07:39:07.468Z,1.93
2022-11-05T07:41:36.621Z,2.07
2022-11-05T07:44:04.498Z,2.10
2022-11-05T07:46:32.625Z,1.83
2022-11-05T07:49:00.335Z,1.97
2022-11-05T07:51:28.065Z,2.40
2022-11-05T07:53:55.747Z,1.70
2022-11-05T07:56:23.936Z,1.73
2022-11-05T07:58:53.041Z,1.90
2022-11-05T08:01:20.911Z,2.10
2022-11-05T08:03:48.822Z,1.77
2022-11-05T08:06:16.559Z,1.63
2022-11-05T08:08:44.251Z,1.80
2022-11-05T08:11:12.907Z,1.70
2022-11-05T08:13:42.683Z,1.60
2022-11-05T08:16:11.816Z,1.73
2022-11-05T08:18:39.597Z,1.37
2022-11-05T08:21:08.877Z,2.10
2022-11-05T08:23:36.778Z,1.97
2022-11-05T08:26:05.131Z,1.63
2022-11-05T08:28:32.957Z,1.83
2022-11-05T08:31:00.682Z,1.80
2022-11-05T08:33:31.294Z,1.77
2022-11-05T08:36:03.320Z,1.50
2022-11-05T08:38:31.354Z,1.53
2022-11-05T08:40:59.474Z,1.70
2022-11-05T08:43:27.505Z,1.90
2022-11-05T08:45:55.286Z,1.60
2022-11-05T08:48:23.300Z,1.67
2022-11-05T08:50:52.353Z,1.90
2022-11-05T08:53:20.219Z,2.00
2022-11-05T08:55:50.076Z,1.67
2022-11-05T08:58:20.154Z,1.80
2022-11-05T09:00:50.596Z,2.03
2022-11-05T09:03:18.451Z,2.00
2022-11-05T09:05:46.154Z,1.50
2022-11-05T09:08:18.153Z,1.40
2022-11-05T09:10:46.998Z,1.80
2022-11-05T09:13:19.455Z,1.57
2022-11-05T09:15:48.006Z,1.40
2022-11-05T09:18:16.197Z,1.50
2022-11-05T09:20:44.546Z,1.40
2022-11-05T09:23:14.763Z,1.73
2022-11-05T09:25:44.891Z,1.50
2022-11-05T09:28:16.795Z,1.60
2022-11-05T09:30:46.671Z,1.53
2022-11-05T09:33:15.129Z,1.60
2022-11-05T09:35:43.203Z,1.73
2022-11-05T09:38:11.322Z,1.57
2022-11-05T09:40:42.625Z,1.90
2022-11-05T09:43:19.204Z,1.63
2022-11-05T09:45:51.229Z,1.63
2022-11-05T09:48:21.520Z,1.60
2022-11-05T09:50:50.212Z,1.90
2022-11-05T09:53:20.665Z,1.77
2022-11-05T09:55:50.937Z,1.83
2022-11-05T09:58:28.831Z,1.90
2022-11-05T10:00:58.236Z,2.30
2022-11-05T10:03:29.571Z,2.10
2022-11-05T10:06:06.972Z,2.00
2022-11-05T10:08:41.372Z,1.80
2022-11-05T10:11:15.397Z,1.83
2022-11-05T10:13:48.430Z,2.10
2022-11-05T10:16:24.540Z,1.70
2022-11-05T10:18:58.040Z,1.80
2022-11-05T10:21:51.323Z,1.70
2022-11-05T10:24:17.316Z,2.30
2022-11-05T10:26:47.639Z,1.70
2022-11-05T10:29:29.236Z,1.70
2022-11-05T10:31:58.281Z,1.70
2022-11-05T10:34:32.182Z,1.50
2022-11-05T10:37:00.022Z,1.77
2022-11-05T10:39:28.752Z,1.67
2022-11-05T10:42:24.370Z,1.57
2022-11-05T10:45:01.251Z,1.63
2022-11-05T10:47:56.788Z,1.37
2022-11-05T10:50:26.767Z,1.33
2022-11-05T10:52:59.192Z,1.23
2022-11-05T10:55:30.137Z,1.40
2022-11-05T10:58:10.250Z,1.97
2022-11-05T11:00:39.495Z,1.23
2022-11-05T11:03:33.247Z,1.30
2022-11-05T11:06:02.592Z,1.10
2022-11-05T11:08:34.462Z,1.40
2022-11-05T11:11:08.665Z,1.30
2022-11-05T11:13:51.120Z,1.00
2022-11-05T11:16:24.176Z,1.23
2022-11-05T11:18:55.081Z,1.50
2022-11-05T11:21:24.228Z,1.40
2022-11-05T11:23:56.677Z,1.20
2022-11-05T11:26:26.909Z,1.30
2022-11-05T11:28:59.222Z,1.50
2022-11-05T11:31:30.717Z,1.10
2022-11-05T11:34:03.210Z,1.40
2022-11-05T11:36:36.802Z,1.77
2022-11-05T11:39:07.915Z,1.63
2022-11-05T11:41:38.737Z,1.50
2022-11-05T11:44:12.440Z,1.43
2022-11-05T11:46:42.425Z,1.67
2022-11-05T11:49:31.475Z,1.70
2022-11-05T11:52:04.292Z,1.77
2022-11-05T11:54:34.371Z,1.70
2022-11-05T11:57:02.134Z,1.53
2022-11-05T11:59:54.289Z,1.70
2022-11-05T12:02:40.513Z,1.80
2022-11-05T12:05:27.937Z,1.60
2022-11-05T12:07:58.211Z,1.90
2022-11-05T12:10:37.545Z,1.57
2022-11-05T12:13:35.606Z,2.33
2022-11-05T12:16:14.682Z,1.80
2022-11-05T12:18:50.069Z,1.60
2022-11-05T12:21:48.118Z,1.97
2022-11-05T12:24:42.795Z,1.90
2022-11-05T12:27:26.161Z,1.80
2022-11-05T12:30:00.992Z,1.33
2022-11-05T12:32:49.223Z,1.43
2022-11-05T12:35:35.605Z,1.70
2022-11-05T12:38:12.253Z,1.43
2022-11-05T12:41:01.855Z,1.33
2022-11-05T12:43:40.012Z,1.67
2022-11-05T12:46:22.299Z,1.30
2022-11-05T12:49:08.163Z,1.60
2022-11-05T12:51:51.239Z,1.40
2022-11-05T12:54:28.348Z,1.40
2022-11-05T12:56:59.641Z,1.57
2022-11-05T12:59:32.756Z,1.57
2022-11-05T13:02:11.706Z,1.17
2022-11-05T13:04:46.165Z,1.30
2022-11-05T13:07:21.215Z,1.43
2022-11-05T13:09:54.584Z,1.30
2022-11-05T13:12:26.366Z,1.73
2022-11-05T13:14:58.987Z,1.23
2022-11-05T13:17:30.760Z,1.60
2022-11-05T13:20:03.268Z,1.43
2022-11-05T13:22:39.482Z,1.30
2022-11-05T13:25:14.326Z,1.37
2022-11-05T13:27:49.807Z,1.17
2022-11-05T13:30:20.770Z,1.80
2022-11-05T13:32:54.594Z,1.67
2022-11-05T13:35:27.400Z,1.50
2022-11-05T13:38:22.289Z,1.40
2022-11-05T13:41:04.086Z,1.67
2022-11-05T13:43:47.251Z,1.40
2022-11-05T13:46:40.072Z,1.50
2022-11-05T13:49:43.250Z,1.30
2022-11-05T13:52:33.582Z,1.57
2022-11-05T13:55:46.045Z,1.37
2022-11-05T13:58:38.764Z,1.60
2022-11-05T14:01:15.160Z,1.47
2022-11-05T14:03:48.082Z,1.50
2022-11-05T14:06:23.607Z,1.43
2022-11-05T14:08:51.602Z,1.63
2022-11-05T14:11:26.284Z,1.57
2022-11-05T14:13:58.081Z,1.60
2022-11-05T14:16:27.877Z,1.87
2022-11-05T14:19:16.762Z,1.60
2022-11-05T14:21:49.218Z,1.70
2022-11-05T14:24:26.697Z,1.87
2022-11-05T14:27:31.979Z,2.07
2022-11-05T14:30:01.888Z,1.83
2022-11-05T14:32:45.100Z,1.80
2022-11-05T14:35:39.901Z,1.90
2022-11-05T14:38:20.661Z,2.10
2022-11-05T14:40:49.934Z,1.90
2022-11-05T14:43:23.931Z,2.07
2022-11-05T14:46:00.572Z,2.43
2022-11-05T14:48:38.737Z,2.03
2022-11-05T14:51:26.701Z,2.30
2022-11-05T14:54:02.540Z,2.47
2022-11-05T14:56:30.786Z,1.87
2022-11-05T14:59:33.709Z,2.07
2022-11-05T15:02:10.331Z,2.77
2022-11-05T15:04:40.564Z,2.50
2022-11-05T15:07:35.928Z,2.00
2022-11-05T15:10:10.895Z,2.37
2022-11-05T15:12:43.367Z,2.67
2022-11-05T15:15:27.797Z,2.77
2022-11-05T15:18:07.279Z,2.70
2022-11-05T15:20:40.599Z,3.10
2022-11-05T15:23:14.430Z,2.53
2022-11-05T15:25:53.273Z,2.57
2022-11-05T15:28:31.486Z,3.03
2022-11-05T15:31:01.578Z,2.40
2022-11-05T15:33:31.698Z,2.60
2022-11-05T15:36:10.606Z,2.57
2022-11-05T15:38:38.435Z,2.77
2022-11-05T15:41:13.418Z,3.20
2022-11-05T15:43:47.837Z,2.23
2022-11-05T15:46:18.363Z,3.20
2022-11-05T15:48:49.825Z,2.70
2022-11-05T15:51:18.151Z,2.83
2022-11-05T15:54:29.611Z,2.87
2022-11-05T15:56:54.080Z,3.13
2022-11-05T15:59:23.281Z,2.90
2022-11-05T16:01:53.994Z,3.47
2022-11-05T16:04:25.820Z,3.73
2022-11-05T16:06:55.807Z,3.23
2022-11-05T16:09:26.380Z,2.93
2022-11-05T16:12:14.332Z,2.93
2022-11-05T16:14:43.081Z,3.30
2022-11-05T16:17:19.431Z,3.27
2022-11-05T16:19:49.527Z,3.00
2022-11-05T16:22:17.635Z,3.03
2022-11-05T16:24:46.156Z,3.20
2022-11-05T16:27:19.490Z,3.10
2022-11-05T16:29:52.794Z,3.50
2022-11-05T16:32:29.879Z,2.77
2022-11-05T16:35:02.081Z,3.00
2022-11-05T16:37:36.654Z,2.73
2022-11-05T16:40:13.529Z,2.90
2022-11-05T16:42:42.155Z,3.17
2022-11-05T16:45:14.768Z,2.97
2022-11-05T16:47:47.132Z,3.03
2022-11-05T16:50:20.543Z,2.60
2022-11-05T16:52:48.775Z,3.13
2022-11-05T16:55:17.527Z,2.80
2022-11-05T16:57:48.470Z,3.30
2022-11-05T17:00:19.165Z,3.70
2022-11-05T17:02:46.871Z,2.60
2022-11-05T17:05:20.835Z,3.20
2022-11-05T17:07:48.608Z,2.83
2022-11-05T17:10:16.998Z,3.30
2022-11-05T17:12:45.063Z,3.33
2022-11-05T17:15:18.393Z,3.30
2022-11-05T17:17:46.727Z,2.73
2022-11-05T17:20:23.529Z,3.00
2022-11-05T17:22:51.237Z,2.83
2022-11-05T17:25:19.004Z,2.60
2022-11-05T17:27:46.934Z,3.20
2022-11-05T17:30:15.085Z,2.90
2022-11-05T17:32:42.828Z,2.73
2022-11-05T17:35:10.936Z,2.70
2022-11-05T17:37:40.102Z,2.63
2022-11-05T17:40:09.993Z,2.43
2022-11-05T17:42:37.732Z,2.83
2022-11-05T17:45:06.334Z,2.83
2022-11-05T17:47:34.237Z,2.70
2022-11-05T17:50:01.977Z,2.90
2022-11-05T17:52:30.052Z,2.80
2022-11-05T17:54:59.174Z,3.20
2022-11-05T17:57:28.608Z,2.73
2022-11-05T17:59:56.318Z,2.90
2022-11-05T18:02:24.472Z,2.60
2022-11-05T18:04:52.384Z,2.63
2022-11-05T18:07:20.286Z,2.80
2022-11-05T18:09:47.961Z,2.90
2022-11-05T18:12:17.167Z,2.60
2022-11-05T18:14:44.952Z,2.60
2022-11-05T18:17:12.836Z,2.77
2022-11-05T18:19:40.591Z,3.10
2022-11-05T18:22:08.297Z,2.77
2022-11-05T18:24:35.955Z,2.40
2022-11-05T18:27:03.650Z,2.40
2022-11-05T18:29:32.774Z,2.50
2022-11-05T18:32:00.676Z,3.00
2022-11-05T18:34:28.511Z,2.40
2022-11-05T18:36:56.799Z,2.50
2022-11-05T18:39:24.624Z,2.53
2022-11-05T18:41:52.324Z,2.20
2022-11-05T18:44:22.777Z,2.40
2022-11-05T18:46:58.096Z,2.20
2022-11-05T18:49:26.759Z,2.20
2022-11-05T18:51:54.648Z,2.20
2022-11-05T18:54:23.241Z,2.27
2022-11-05T18:56:51.305Z,2.57
2022-11-05T18:59:38.303Z,2.03
2022-11-05T19:02:09.826Z,2.20
2022-11-05T19:04:38.427Z,2.23
2022-11-05T19:07:07.414Z,2.20
2022-11-05T19:09:35.951Z,1.83
2022-11-05T19:12:04.155Z,2.20
2022-11-05T19:14:31.982Z,1.90
2022-11-05T19:17:00.383Z,2.07
2022-11-05T19:19:29.730Z,2.40
2022-11-05T19:21:57.619Z,1.80
2022-11-05T19:24:25.430Z,1.83
2022-11-05T19:26:53.247Z,2.47
2022-11-05T19:29:20.943Z,1.80
2022-11-05T19:31:48.961Z,2.03
2022-11-05T19:34:16.727Z,2.00
2022-11-05T19:36:45.982Z,2.30
2022-11-05T19:39:15.391Z,2.17
2022-11-05T19:41:43.109Z,1.90
2022-11-05T19:44:11.126Z,1.83
2022-11-05T19:46:38.824Z,2.20
2022-11-05T19:49:06.561Z,2.10
2022-11-05T19:51:34.390Z,2.30
2022-11-05T19:54:04.655Z,2.00
2022-11-05T19:56:34.709Z,2.10
2022-11-05T19:59:03.824Z,2.57
2022-11-05T20:01:32.408Z,2.00
2022-11-05T20:04:02.314Z,2.50
2022-11-05T20:06:32.980Z,2.30
2022-11-05T20:09:20.949Z,1.83
2022-11-05T20:11:50.349Z,2.17
2022-11-05T20:14:18.021Z,2.17
2022-11-05T20:16:47.024Z,2.30
2022-11-05T20:19:17.531Z,2.20
2022-11-05T20:21:45.455Z,2.23
2022-11-05T20:24:22.331Z,2.00
2022-11-05T20:26:52.693Z,1.93
2022-11-05T20:29:20.557Z,2.10
2022-11-05T20:31:48.688Z,1.87
2022-11-05T20:34:16.579Z,2.07
2022-11-05T20:36:44.410Z,1.87
2022-11-05T20:39:12.349Z,1.70
2022-11-05T20:41:41.562Z,1.83
2022-11-05T20:44:09.424Z,2.03
2022-11-05T20:46:37.214Z,2.13
2022-11-05T20:49:05.487Z,1.80
2022-11-05T20:51:33.274Z,1.90
2022-11-05T20:54:02.872Z,2.00
2022-11-05T20:56:32.526Z,1.80
2022-11-05T20:59:02.391Z,1.90
2022-11-05T21:01:32.204Z,1.67
2022-11-05T21:04:00.739Z,1.70
2022-11-05T21:06:28.836Z,2.17
2022-11-05T21:08:56.563Z,1.90
2022-11-05T21:11:24.301Z,1.97
2022-11-05T21:13:52.103Z,2.10
2022-11-05T21:16:21.762Z,1.80
2022-11-05T21:18:49.699Z,2.03
2022-11-05T21:21:19.857Z,2.07
2022-11-05T21:23:47.837Z,1.87
2022-11-05T21:26:17.868Z,1.73
2022-11-05T21:28:45.644Z,1.90
2022-11-05T21:31:13.357Z,1.93
2022-11-05T21:33:42.490Z,1.77
2022-11-05T21:36:12.101Z,2.00
2022-11-05T21:38:40.432Z,2.10
2022-11-05T21:41:09.560Z,2.20
2022-11-05T21:43:41.454Z,1.60
2022-11-05T21:46:09.163Z,2.40
2022-11-05T21:48:37.470Z,2.10
2022-11-05T21:51:24.519Z,2.10
2022-11-05T21:54:09.688Z,2.07
2022-11-05T21:56:54.777Z,1.80
2022-11-05T21:59:41.277Z,1.77
2022-11-05T22:02:11.444Z,1.93
2022-11-05T22:04:41.128Z,1.70
2022-11-05T22:07:12.093Z,2.00
2022-11-05T22:09:39.835Z,2.40
2022-11-05T22:12:08.328Z,1.73
2022-11-05T22:14:36.368Z,2.07
2022-11-05T22:17:04.234Z,1.83
2022-11-05T22:19:32.359Z,1.90
2022-11-05T22:22:00.061Z,2.10
2022-11-05T22:24:31.731Z,1.80
2022-11-05T22:26:59.760Z,1.80
2022-11-05T22:29:27.880Z,2.13
2022-11-05T22:31:56.864Z,1.93
2022-11-05T22:34:25.309Z,2.10
2022-11-05T22:36:53.444Z,2.30
2022-11-05T22:39:23.244Z,1.83
2022-11-05T22:41:54.475Z,2.63
2022-11-05T22:44:22.321Z,2.27
2022-11-05T22:46:50.198Z,2.10
2022-11-05T22:49:17.942Z,2.20
2022-11-05T22:51:45.885Z,2.20
2022-11-05T22:54:13.629Z,2.57
2022-11-05T22:56:43.003Z,2.37
2022-11-05T22:59:14.762Z,2.07
2022-11-05T23:01:43.394Z,2.30
2022-11-05T23:04:11.347Z,2.30
2022-11-05T23:06:56.811Z,2.10
2022-11-05T23:09:44.223Z,2.23
2022-11-05T23:12:21.411Z,2.03
2022-11-05T23:14:50.439Z,2.40
2022-11-05T23:17:35.716Z,2.43
2022-11-05T23:20:24.424Z,2.37
2022-11-05T23:23:10.361Z,1.97
2022-11-05T23:25:38.107Z,2.17
2022-11-05T23:28:09.769Z,2.40
2022-11-05T23:31:03.476Z,2.60
2022-11-05T23:33:33.565Z,2.27
2022-11-05T23:36:18.521Z,2.30
2022-11-05T23:38:46.682Z,2.30
2022-11-05T23:41:31.979Z,1.97
2022-11-05T23:44:17.190Z,2.20
2022-11-05T23:47:03.625Z,2.27
2022-11-05T23:49:31.816Z,2.37
2022-11-05T23:51:59.666Z,2.13
2022-11-05T23:54:27.463Z,2.07
2022-11-05T23:56:55.175Z,1.93
2022-11-05T23:59:22.922Z,2.00
